Time;durP1;ratioP1;P1;durP2;ratioP2;P2;SDS_P1;SDS_P2;PMS_P1;PMS_P2;Temp;Humidity;BMP_temperature;BMP_pressure;BME280_temperature;BME280_humidity;BME280_pressure;Samples;Min_cycle;Max_cycle;Signal;HPM_P1;HPM_P2
2021/12/09 00:01:48;;;;;;;12.07;10.63;;;1.70;99.90;;;;;;5016124;28;20188;-88
2021/12/09 00:04:18;;;;;;;13.47;10.33;;;1.70;99.90;;;;;;5016070;28;20183;-88
2021/12/09 00:06:45;;;;;;;13.43;10.67;;;1.70;99.90;;;;;;5015946;28;20191;-88
2021/12/09 00:09:15;;;;;;;13.23;11.67;;;1.90;99.90;;;;;;5016695;28;20243;-88
2021/12/09 00:11:46;;;;;;;13.57;12.03;;;1.90;99.90;;;;;;5019914;28;20172;-89
2021/12/09 00:14:22;;;;;;;13.37;11.40;;;1.90;99.90;;;;;;5019476;28;20198;-88
2021/12/09 00:16:48;;;;;;;15.53;11.90;;;1.80;99.90;;;;;;5020144;28;20180;-88
2021/12/09 00:19:14;;;;;;;14.97;13.33;;;1.80;99.90;;;;;;5019921;28;20171;-88
2021/12/09 00:21:40;;;;;;;17.50;13.00;;;1.80;99.90;;;;;;5037504;28;20669;-89
2021/12/09 00:24:07;;;;;;;16.73;13.27;;;1.80;99.90;;;;;;5020119;28;20689;-89
2021/12/09 00:26:32;;;;;;;17.50;13.57;;;1.80;99.90;;;;;;5020514;28;20177;-90
2021/12/09 00:28:59;;;;;;;18.17;13.83;;;1.80;99.90;;;;;;5022002;28;20222;-89
2021/12/09 00:31:25;;;;;;;18.80;14.47;;;1.70;99.90;;;;;;5037993;28;20162;-89
2021/12/09 00:33:51;;;;;;;19.57;14.37;;;1.60;99.90;;;;;;5019865;28;20512;-88
2021/12/09 00:36:26;;;;;;;21.63;15.13;;;1.60;99.90;;;;;;5037873;28;20175;-89
2021/12/09 00:38:56;;;;;;;19.87;15.37;;;1.60;99.90;;;;;;5020701;28;20510;-88
2021/12/09 00:41:23;;;;;;;20.20;14.30;;;1.70;99.90;;;;;;5034735;28;20205;-89
2021/12/09 00:43:50;;;;;;;18.47;14.73;;;1.70;99.90;;;;;;5060937;28;20211;-88
2021/12/09 00:46:16;;;;;;;18.13;14.33;;;1.80;99.90;;;;;;5023994;28;20557;-89
2021/12/09 00:48:41;;;;;;;17.67;14.73;;;1.80;99.90;;;;;;5038919;28;20202;-88
2021/12/09 00:51:08;;;;;;;18.63;14.03;;;1.70;99.90;;;;;;5036365;28;20165;-88
2021/12/09 00:53:35;;;;;;;18.37;15.30;;;1.70;99.90;;;;;;5050144;28;20193;-89
2021/12/09 00:56:03;;;;;;;22.17;15.67;;;1.70;99.90;;;;;;5059427;28;20225;-89
2021/12/09 00:58:29;;;;;;;20.47;16.03;;;1.70;99.90;;;;;;5058825;28;20185;-87
2021/12/09 01:00:55;;;;;;;19.37;14.93;;;1.60;99.90;;;;;;5032362;28;20178;-88
2021/12/09 01:03:21;;;;;;;18.77;14.87;;;1.70;99.90;;;;;;5031037;28;20178;-88
2021/12/09 01:05:47;;;;;;;18.63;15.00;;;1.60;99.90;;;;;;5024040;28;20185;-89
2021/12/09 01:08:13;;;;;;;18.73;14.43;;;1.60;99.90;;;;;;5019521;28;20223;-89
2021/12/09 01:10:40;;;;;;;21.47;14.90;;;1.50;99.90;;;;;;5039452;28;20262;-89
2021/12/09 01:13:06;;;;;;;19.90;14.93;;;1.60;99.90;;;;;;5020575;28;20186;-89
2021/12/09 01:15:32;;;;;;;20.47;14.77;;;1.60;99.90;;;;;;5024611;28;20664;-89
2021/12/09 01:17:58;;;;;;;16.47;14.33;;;1.60;99.90;;;;;;5021652;28;20182;-88
2021/12/09 01:20:25;;;;;;;18.20;13.50;;;1.60;99.90;;;;;;5036424;28;20731;-88
2021/12/09 01:22:56;;;;;;;16.80;13.23;;;1.60;99.90;;;;;;5018286;28;20630;-89
2021/12/09 01:25:25;;;;;;;19.97;12.90;;;1.70;99.90;;;;;;5019085;28;20183;-88
2021/12/09 01:27:53;;;;;;;15.83;12.47;;;1.70;99.90;;;;;;5018655;28;20676;-89
2021/12/09 01:30:21;;;;;;;16.90;13.07;;;1.70;99.90;;;;;;5035704;28;20200;-89
2021/12/09 01:32:51;;;;;;;18.37;12.80;;;1.70;99.90;;;;;;5018726;28;20231;-89
2021/12/09 01:35:20;;;;;;;17.23;12.80;;;1.70;99.90;;;;;;5018476;28;20261;-89
2021/12/09 01:37:47;;;;;;;16.70;12.80;;;1.60;99.90;;;;;;5018778;28;20182;-89
2021/12/09 01:40:14;;;;;;;15.10;12.73;;;1.50;99.90;;;;;;5036998;28;20231;-89
2021/12/09 01:42:40;;;;;;;16.37;12.37;;;1.50;99.90;;;;;;5018699;28;20642;-88
2021/12/09 01:45:06;;;;;;;17.90;13.30;;;1.40;99.90;;;;;;5018102;28;20233;-88
2021/12/09 01:47:32;;;;;;;15.67;12.47;;;1.40;99.90;;;;;;5035784;28;20676;-88
2021/12/09 01:49:58;;;;;;;18.03;12.87;;;1.40;99.90;;;;;;5035815;28;20196;-88
2021/12/09 01:52:24;;;;;;;18.40;13.53;;;1.50;99.90;;;;;;5018185;28;20232;-88
2021/12/09 01:54:50;;;;;;;18.03;12.20;;;1.60;99.90;;;;;;5035772;28;20190;-87
2021/12/09 01:57:16;;;;;;;17.53;12.50;;;1.60;99.90;;;;;;5017889;28;20182;-87
2021/12/09 01:59:41;;;;;;;15.77;13.27;;;1.70;99.90;;;;;;5017752;28;20248;-88
2021/12/09 02:02:07;;;;;;;15.27;12.60;;;1.70;99.90;;;;;;5035550;28;20235;-88
2021/12/09 02:04:33;;;;;;;15.73;12.70;;;1.70;99.90;;;;;;5039098;28;20180;-89
2021/12/09 02:06:59;;;;;;;16.63;13.33;;;1.70;99.90;;;;;;5022331;28;20178;-88
2021/12/09 02:09:25;;;;;;;15.07;12.60;;;1.60;99.90;;;;;;5041355;28;20234;-89
2021/12/09 02:11:50;;;;;;;19.63;13.47;;;1.70;99.90;;;;;;5018198;28;20570;-87
2021/12/09 02:14:16;;;;;;;17.17;12.73;;;1.70;99.90;;;;;;5038383;28;20189;-89
2021/12/09 02:16:43;;;;;;;15.20;12.67;;;1.70;99.90;;;;;;5036460;28;20546;-91
2021/12/09 02:19:11;;;;;;;15.80;12.63;;;1.60;99.90;;;;;;5018757;28;20555;-88
2021/12/09 02:21:37;;;;;;;15.93;12.57;;;1.70;99.90;;;;;;5047560;28;20227;-89
2021/12/09 02:24:06;;;;;;;15.77;12.40;;;1.60;99.90;;;;;;5038726;28;20174;-87
2021/12/09 02:26:40;;;;;;;17.90;12.93;;;1.50;99.90;;;;;;5038381;28;20176;-88
2021/12/09 02:29:10;;;;;;;14.73;12.03;;;1.50;99.90;;;;;;5036664;28;20198;-89
2021/12/09 02:31:38;;;;;;;15.20;12.47;;;1.60;99.90;;;;;;5017395;28;20277;-89
2021/12/09 02:34:04;;;;;;;16.13;12.03;;;1.60;99.90;;;;;;5036713;28;20176;-89
2021/12/09 02:36:35;;;;;;;16.67;13.13;;;1.60;99.90;;;;;;5048858;28;20205;-91
2021/12/09 02:39:02;;;;;;;17.43;13.00;;;1.40;99.90;;;;;;5033170;28;20281;-91
2021/12/09 02:41:28;;;;;;;17.83;13.47;;;1.50;99.90;;;;;;5035844;28;20174;-88
2021/12/09 02:44:01;;;;;;;13.80;11.53;;;1.50;99.90;;;;;;5035478;28;20223;-88
2021/12/09 02:46:28;;;;;;;17.43;13.40;;;1.60;99.90;;;;;;5017920;28;20249;-89
2021/12/09 02:48:54;;;;;;;16.37;12.67;;;1.70;99.90;;;;;;5024606;28;20305;-91
2021/12/09 02:51:21;;;;;;;13.07;11.70;;;1.70;99.90;;;;;;5033170;28;20245;-89
2021/12/09 02:53:47;;;;;;;16.57;12.60;;;1.70;99.90;;;;;;5034583;28;20174;-89
2021/12/09 02:56:14;;;;;;;14.17;12.43;;;1.50;99.90;;;;;;5040040;28;20189;-90
2021/12/09 02:58:40;;;;;;;16.67;12.50;;;1.50;99.90;;;;;;5047759;28;20646;-89
2021/12/09 03:01:15;;;;;;;15.87;13.00;;;1.50;99.90;;;;;;5055036;28;20253;-90
2021/12/09 03:03:50;;;;;;;15.23;12.63;;;1.40;99.90;;;;;;5065070;28;20221;-89
2021/12/09 03:06:17;;;;;;;15.90;12.13;;;1.20;99.90;;;;;;5044954;28;20680;-89
2021/12/09 03:08:43;;;;;;;16.67;12.97;;;1.10;99.90;;;;;;5044098;28;20212;-89
2021/12/09 03:11:14;;;;;;;14.83;12.07;;;1.20;99.90;;;;;;5049832;28;20192;-91
2021/12/09 03:13:42;;;;;;;15.47;11.90;;;1.20;99.90;;;;;;5046629;28;20177;-90
2021/12/09 03:16:10;;;;;;;13.47;11.83;;;1.40;99.90;;;;;;5040220;28;20767;-91
2021/12/09 03:18:46;;;;;;;14.00;12.13;;;1.40;99.90;;;;;;5054584;28;20235;-90
2021/12/09 03:21:14;;;;;;;13.57;11.27;;;1.60;99.90;;;;;;5054065;28;20708;-90
2021/12/09 03:23:40;;;;;;;13.03;10.93;;;1.70;99.90;;;;;;5054224;28;20264;-90
2021/12/09 03:26:06;;;;;;;13.10;11.10;;;1.60;99.90;;;;;;5036323;28;20700;-91
2021/12/09 03:28:32;;;;;;;14.67;11.67;;;1.50;99.90;;;;;;5053923;28;20228;-91
2021/12/09 03:30:58;;;;;;;13.13;11.10;;;1.50;99.90;;;;;;5036397;28;20633;-89
2021/12/09 03:33:24;;;;;;;15.77;11.33;;;1.50;99.90;;;;;;5054782;28;20269;-89
2021/12/09 03:35:58;;;;;;;13.40;11.70;;;1.40;99.90;;;;;;5036218;28;20177;-89
2021/12/09 03:38:25;;;;;;;15.33;11.43;;;1.50;99.90;;;;;;5054004;28;20173;-89
2021/12/09 03:40:51;;;;;;;12.27;10.77;;;1.20;99.90;;;;;;5053729;28;20192;-89
2021/12/09 03:43:16;;;;;;;10.93;9.57;;;1.30;99.90;;;;;;5053994;28;20174;-89
2021/12/09 03:45:42;;;;;;;13.43;10.50;;;1.40;99.90;;;;;;5051796;28;20252;-89
2021/12/09 03:48:08;;;;;;;15.13;10.87;;;1.60;99.90;;;;;;5048967;28;20203;-89
2021/12/09 03:50:34;;;;;;;11.60;10.13;;;1.50;99.90;;;;;;5043074;28;20647;-87
2021/12/09 03:52:59;;;;;;;12.37;10.23;;;1.10;99.90;;;;;;5062838;28;20174;-89
2021/12/09 03:55:25;;;;;;;12.47;9.97;;;1.10;99.90;;;;;;5058653;28;20679;-89
2021/12/09 03:57:52;;;;;;;13.33;11.23;;;1.20;99.90;;;;;;5036332;28;20173;-89
2021/12/09 04:00:18;;;;;;;16.27;12.73;;;1.20;99.90;;;;;;5035835;28;20184;-89
2021/12/09 04:02:44;;;;;;;13.80;10.33;;;1.20;99.90;;;;;;5053620;28;20535;-89
2021/12/09 04:05:10;;;;;;;17.67;10.93;;;1.40;99.90;;;;;;5035293;28;20177;-88
2021/12/09 04:07:35;;;;;;;12.27;10.33;;;1.30;99.90;;;;;;5053616;28;20173;-88
2021/12/09 04:10:02;;;;;;;13.13;9.90;;;1.30;99.90;;;;;;5053692;28;20660;-88
2021/12/09 04:12:28;;;;;;;11.33;9.37;;;1.40;99.90;;;;;;5053667;28;20169;-87
2021/12/09 04:14:53;;;;;;;11.50;10.30;;;1.30;99.90;;;;;;5053416;28;20239;-88
2021/12/09 04:17:19;;;;;;;12.67;9.90;;;1.30;99.90;;;;;;5035586;28;20173;-87
2021/12/09 04:19:47;;;;;;;11.87;9.77;;;1.40;99.90;;;;;;5053693;28;20209;-88
2021/12/09 04:22:20;;;;;;;12.10;10.07;;;1.40;99.90;;;;;;5035811;28;20181;-87
2021/12/09 04:24:47;;;;;;;10.13;9.13;;;1.40;99.90;;;;;;5053931;28;20180;-88
2021/12/09 04:27:13;;;;;;;12.13;9.73;;;1.40;99.90;;;;;;5047193;28;20183;-89
2021/12/09 04:29:39;;;;;;;10.20;9.13;;;1.30;99.90;;;;;;5074143;28;20214;-89
2021/12/09 04:32:05;;;;;;;10.37;9.20;;;1.20;99.90;;;;;;5065300;28;20175;-90
2021/12/09 04:34:31;;;;;;;11.93;9.53;;;1.10;99.90;;;;;;5054756;28;20226;-89
2021/12/09 04:36:58;;;;;;;11.63;9.60;;;1.10;99.90;;;;;;5037690;28;20536;-89
2021/12/09 04:39:24;;;;;;;10.13;9.13;;;1.30;99.90;;;;;;5055592;28;20189;-89
2021/12/09 04:41:50;;;;;;;11.27;9.10;;;1.30;99.90;;;;;;5057875;28;20631;-89
2021/12/09 04:44:17;;;;;;;10.90;9.27;;;1.40;99.90;;;;;;5054543;28;20248;-89
2021/12/09 04:46:43;;;;;;;14.27;9.50;;;1.30;99.90;;;;;;5073744;28;20157;-90
2021/12/09 04:49:09;;;;;;;10.87;9.17;;;1.30;99.90;;;;;;5076633;28;20243;-90
2021/12/09 04:51:35;;;;;;;10.67;9.43;;;1.20;99.90;;;;;;5054030;28;20185;-88
2021/12/09 04:54:05;;;;;;;13.27;9.70;;;0.90;99.90;;;;;;5057774;28;20189;-90
2021/12/09 04:56:31;;;;;;;11.00;9.90;;;0.80;99.90;;;;;;5058347;28;20165;-90
2021/12/09 04:58:57;;;;;;;12.30;9.70;;;0.80;99.90;;;;;;5062604;28;20181;-89
2021/12/09 05:01:23;;;;;;;12.47;9.57;;;0.80;99.90;;;;;;5077945;28;20217;-89
2021/12/09 05:03:49;;;;;;;10.13;9.10;;;0.90;99.90;;;;;;5064461;28;20180;-89
2021/12/09 05:06:17;;;;;;;15.00;9.80;;;1.00;99.90;;;;;;5062535;28;20168;-90
2021/12/09 05:08:48;;;;;;;11.13;8.77;;;1.00;99.90;;;;;;5055999;28;20213;-90
2021/12/09 05:11:47;;;;;;;10.53;8.83;;;1.00;99.90;;;;;;5056476;28;20164;-90
2021/12/09 05:14:16;;;;;;;12.40;8.80;;;1.00;99.90;;;;;;5027684;28;20638;-89
2021/12/09 05:16:43;;;;;;;10.80;9.40;;;0.80;99.90;;;;;;5025075;28;20176;-90
2021/12/09 05:19:09;;;;;;;11.30;9.27;;;0.70;99.90;;;;;;5038283;28;20174;-90
2021/12/09 05:21:37;;;;;;;10.97;9.10;;;0.70;99.90;;;;;;5039492;28;20225;-90
2021/12/09 05:24:09;;;;;;;12.53;9.60;;;0.80;99.90;;;;;;5038888;28;20173;-89
2021/12/09 05:26:43;;;;;;;13.57;9.90;;;0.90;99.90;;;;;;5039017;28;20578;-89
2021/12/09 05:29:09;;;;;;;11.73;8.77;;;0.90;99.90;;;;;;5056385;28;20208;-89
2021/12/09 05:34:20;;;;;;;15.10;9.70;;;0.90;99.90;;;;;;5057640;28;20669;-89
2021/12/09 05:36:47;;;;;;;13.87;9.70;;;0.90;99.90;;;;;;5042368;28;20179;-89
2021/12/09 05:39:14;;;;;;;11.17;9.97;;;0.90;99.90;;;;;;5058658;28;20200;-89
2021/12/09 05:41:40;;;;;;;10.30;8.57;;;0.90;99.90;;;;;;5039184;28;20513;-89
2021/12/09 05:44:08;;;;;;;12.60;9.57;;;0.90;99.90;;;;;;5057045;28;20299;-89
2021/12/09 05:46:37;;;;;;;12.13;9.60;;;0.70;99.90;;;;;;5057177;28;20196;-88
2021/12/09 05:49:04;;;;;;;13.17;9.30;;;0.80;99.90;;;;;;5044901;28;20238;-90
2021/12/09 05:51:30;;;;;;;18.77;11.10;;;0.80;99.90;;;;;;5043800;28;20279;-88
2021/12/09 05:53:58;;;;;;;12.27;9.90;;;0.90;99.90;;;;;;5057167;28;20205;-89
2021/12/09 05:56:25;;;;;;;11.37;10.17;;;0.90;99.90;;;;;;5038518;28;20172;-88
2021/12/09 05:58:52;;;;;;;12.47;9.40;;;1.00;99.90;;;;;;5037760;28;20213;-88
2021/12/09 06:01:17;;;;;;;11.90;9.77;;;0.90;99.90;;;;;;5037885;28;20176;-88
2021/12/09 06:03:43;;;;;;;13.73;9.33;;;1.10;99.90;;;;;;5057021;28;20171;-89
2021/12/09 06:06:11;;;;;;;15.27;9.43;;;1.20;99.90;;;;;;5038438;28;20655;-88
2021/12/09 06:08:39;;;;;;;10.77;9.10;;;1.10;99.90;;;;;;5055267;28;20679;-89
2021/12/09 06:11:06;;;;;;;15.60;10.57;;;1.10;99.90;;;;;;5038107;28;20172;-89
2021/12/09 06:13:36;;;;;;;11.97;9.73;;;0.90;99.90;;;;;;5055407;28;20175;-88
2021/12/09 06:16:03;;;;;;;18.50;9.93;;;1.00;99.90;;;;;;5055771;28;20166;-88
2021/12/09 06:18:29;;;;;;;11.83;9.70;;;1.20;99.90;;;;;;5038422;28;20185;-88
2021/12/09 06:20:55;;;;;;;13.83;9.90;;;1.30;99.90;;;;;;5048040;28;20582;-88
2021/12/09 06:23:21;;;;;;;15.43;10.57;;;1.20;99.90;;;;;;5075887;28;20178;-88
2021/12/09 06:25:47;;;;;;;13.30;10.40;;;1.10;99.90;;;;;;5068035;28;20181;-88
2021/12/09 06:28:13;;;;;;;13.83;10.30;;;1.30;99.90;;;;;;5037776;28;20732;-89
2021/12/09 06:30:39;;;;;;;13.43;9.93;;;1.10;99.90;;;;;;5057583;28;20284;-88
2021/12/09 06:33:05;;;;;;;16.53;11.30;;;1.10;99.90;;;;;;5053217;28;20222;-89
2021/12/09 06:35:33;;;;;;;15.23;10.60;;;1.30;99.90;;;;;;5075426;28;20169;-88
2021/12/09 06:38:00;;;;;;;18.43;11.10;;;1.30;99.90;;;;;;5059706;28;20188;-91
2021/12/09 06:40:26;;;;;;;15.50;10.60;;;1.40;99.90;;;;;;5040696;28;20544;-90
2021/12/09 06:42:53;;;;;;;18.10;10.20;;;1.60;99.90;;;;;;5057079;28;20185;-90
2021/12/09 06:45:21;;;;;;;12.83;9.70;;;1.60;99.90;;;;;;5063278;28;20224;-89
2021/12/09 06:47:48;;;;;;;11.27;9.67;;;1.60;99.90;;;;;;5077046;28;20176;-86
2021/12/09 06:50:17;;;;;;;16.20;10.63;;;1.60;99.90;;;;;;5077498;28;20160;-91
2021/12/09 06:52:43;;;;;;;12.07;9.97;;;1.60;99.90;;;;;;5057938;28;20201;-89
2021/12/09 06:55:12;;;;;;;11.53;9.83;;;1.70;99.90;;;;;;5039409;28;20165;-88
2021/12/09 06:57:39;;;;;;;12.90;9.90;;;1.70;99.90;;;;;;5045926;28;20163;-88
2021/12/09 07:00:08;;;;;;;14.47;10.47;;;1.80;99.90;;;;;;5041205;28;20174;-89
2021/12/09 07:02:34;;;;;;;13.70;10.50;;;1.90;99.90;;;;;;5046072;28;20249;-89
2021/12/09 07:04:59;;;;;;;12.27;9.80;;;1.90;99.90;;;;;;5046291;28;20173;-89
2021/12/09 07:07:31;;;;;;;18.00;12.03;;;2.00;99.90;;;;;;5041395;28;20178;-89
2021/12/09 07:09:57;;;;;;;17.17;12.43;;;1.90;99.90;;;;;;5023486;28;20264;-88
2021/12/09 07:12:23;;;;;;;19.50;11.67;;;1.90;99.90;;;;;;5038244;28;20248;-87
2021/12/09 07:14:49;;;;;;;15.73;11.77;;;1.90;99.90;;;;;;5041241;28;20190;-88
2021/12/09 07:17:16;;;;;;;17.93;11.70;;;2.00;99.90;;;;;;5039288;28;20220;-88
2021/12/09 07:19:42;;;;;;;14.33;10.73;;;2.10;99.90;;;;;;5021238;28;20202;-90
2021/12/09 07:22:08;;;;;;;17.23;11.20;;;1.90;99.90;;;;;;5019342;28;20182;-90
2021/12/09 07:24:34;;;;;;;14.20;10.67;;;1.80;99.90;;;;;;5036692;28;20202;-88
2021/12/09 07:27:00;;;;;;;12.87;10.33;;;1.70;99.90;;;;;;5017733;28;20174;-89
2021/12/09 07:29:26;;;;;;;15.33;11.30;;;1.60;99.90;;;;;;5034787;28;20259;-88
2021/12/09 07:31:52;;;;;;;16.43;10.97;;;1.70;99.90;;;;;;5034886;28;20177;-90
2021/12/09 07:34:18;;;;;;;15.07;10.57;;;1.70;99.90;;;;;;5018110;28;20274;-89
2021/12/09 07:36:44;;;;;;;16.10;11.27;;;1.70;99.90;;;;;;5016718;28;20272;-86
2021/12/09 07:39:10;;;;;;;14.67;11.07;;;1.70;99.90;;;;;;5035581;28;20198;-90
2021/12/09 07:41:36;;;;;;;13.23;10.10;;;1.80;99.90;;;;;;5018134;28;20641;-90
2021/12/09 07:44:02;;;;;;;13.27;10.17;;;1.80;99.90;;;;;;5034664;28;20583;-90
2021/12/09 07:46:35;;;;;;;12.23;10.13;;;1.70;99.90;;;;;;5016433;28;20630;-90
2021/12/09 07:49:02;;;;;;;17.07;9.87;;;1.80;99.90;;;;;;5016757;28;20213;-89
2021/12/09 07:51:28;;;;;;;13.10;9.87;;;1.50;99.90;;;;;;5035039;28;20166;-90
2021/12/09 07:53:55;;;;;;;13.43;10.03;;;1.40;99.90;;;;;;5017165;28;20208;-90
2021/12/09 07:56:20;;;;;;;12.17;10.00;;;1.30;99.90;;;;;;5018934;28;20186;-90
2021/12/09 07:58:46;;;;;;;11.60;9.73;;;1.40;99.90;;;;;;5029059;28;20201;-90
2021/12/09 08:01:12;;;;;;;10.40;9.30;;;1.40;99.90;;;;;;5043752;28;20243;-90
2021/12/09 08:03:38;;;;;;;12.47;9.07;;;1.50;99.90;;;;;;5017818;28;20220;-91
2021/12/09 08:06:04;;;;;;;13.00;10.83;;;1.50;99.90;;;;;;5016367;28;20764;-90
2021/12/09 08:08:30;;;;;;;12.37;9.33;;;1.50;99.90;;;;;;5034027;28;20300;-90
2021/12/09 08:10:56;;;;;;;13.30;9.73;;;1.70;99.90;;;;;;5017061;28;20588;-91
2021/12/09 08:13:23;;;;;;;12.93;9.40;;;1.90;99.90;;;;;;5034798;28;20174;-90
2021/12/09 08:15:50;;;;;;;11.57;9.33;;;2.10;99.90;;;;;;5043608;28;20233;-90
2021/12/09 08:20:47;;;;;;;14.93;9.13;;;2.50;99.90;;;;;;5049368;28;20520;-90
2021/12/09 08:23:14;;;;;;;10.53;9.10;;;2.60;99.90;;;;;;5016582;28;20634;-90
2021/12/09 08:25:41;;;;;;;9.80;8.80;;;2.70;99.90;;;;;;5016782;28;20178;-90
2021/12/09 08:28:07;;;;;;;10.80;9.63;;;2.80;99.90;;;;;;5015783;28;20198;-89
2021/12/09 08:30:33;;;;;;;12.47;10.10;;;2.90;99.90;;;;;;5035681;28;20178;-90
2021/12/09 08:33:00;;;;;;;12.77;9.50;;;2.90;99.90;;;;;;5021329;28;20171;-89
2021/12/09 08:35:26;;;;;;;9.80;8.80;;;3.00;99.90;;;;;;5020330;28;20185;-90
2021/12/09 08:37:56;;;;;;;11.53;9.60;;;3.00;99.90;;;;;;5021497;28;20171;-89
2021/12/09 08:40:22;;;;;;;11.60;9.60;;;3.10;99.90;;;;;;5045880;28;20190;-89
2021/12/09 08:42:51;;;;;;;12.07;9.13;;;2.70;99.90;;;;;;5047965;28;20170;-90
2021/12/09 08:45:18;;;;;;;11.80;9.93;;;2.60;99.90;;;;;;5037513;28;20238;-90
2021/12/09 08:47:44;;;;;;;12.07;9.57;;;2.60;99.90;;;;;;5036015;28;20246;-87
2021/12/09 08:50:13;;;;;;;10.70;9.43;;;2.60;99.90;;;;;;5059941;28;20171;-86
2021/12/09 08:52:39;;;;;;;12.07;9.70;;;2.60;99.90;;;;;;5052030;28;20183;-88
2021/12/09 08:55:05;;;;;;;11.17;9.10;;;2.60;99.90;;;;;;5021080;28;20182;-90
2021/12/09 08:57:32;;;;;;;12.83;9.63;;;2.60;99.90;;;;;;5039138;28;20200;-88
2021/12/09 08:59:59;;;;;;;12.73;9.50;;;2.60;99.90;;;;;;5021113;28;20620;-88
2021/12/09 09:02:26;;;;;;;12.50;10.77;;;2.70;99.90;;;;;;5038828;28;20494;-88
2021/12/09 09:04:52;;;;;;;12.33;10.03;;;2.70;99.90;;;;;;5020912;28;20642;-88
2021/12/09 09:07:18;;;;;;;13.57;10.33;;;2.80;99.90;;;;;;5021582;28;20187;-89
2021/12/09 09:09:44;;;;;;;11.40;9.93;;;2.90;99.90;;;;;;5021076;28;20214;-88
2021/12/09 09:12:13;;;;;;;14.57;10.13;;;2.90;99.90;;;;;;5042367;28;20196;-91
2021/12/09 09:14:40;;;;;;;12.47;9.90;;;2.90;99.90;;;;;;5023037;28;20182;-89
2021/12/09 09:17:06;;;;;;;13.87;10.60;;;2.90;99.90;;;;;;5042845;28;20175;-88
2021/12/09 09:19:32;;;;;;;11.23;9.97;;;3.00;99.90;;;;;;5025620;28;20701;-89
2021/12/09 09:21:58;;;;;;;11.70;10.07;;;3.00;99.90;;;;;;5042071;28;20324;-90
2021/12/09 09:24:28;;;;;;;12.70;11.00;;;2.90;99.90;;;;;;5033255;28;20203;-88
2021/12/09 09:26:54;;;;;;;12.07;10.77;;;2.90;99.90;;;;;;5035229;28;20233;-89
2021/12/09 09:29:20;;;;;;;12.30;10.93;;;2.90;99.90;;;;;;5049509;28;20257;-89
2021/12/09 09:31:46;;;;;;;15.13;11.17;;;2.90;99.90;;;;;;5022191;28;20186;-89
2021/12/09 09:34:12;;;;;;;11.93;10.70;;;3.00;99.90;;;;;;5023189;28;20189;-89
2021/12/09 09:36:44;;;;;;;13.20;11.13;;;3.00;99.90;;;;;;5037772;28;20182;-89
2021/12/09 09:39:19;;;;;;;13.63;11.47;;;3.00;99.90;;;;;;5040862;28;20180;-88
2021/12/09 09:42:16;;;;;;;12.20;10.83;;;3.00;99.90;;;;;;5047938;28;20154;-91
2021/12/09 09:44:49;;;;;;;12.13;10.80;;;3.00;99.90;;;;;;5048823;28;20225;-90
2021/12/09 09:47:19;;;;;;;19.43;11.67;;;3.00;99.90;;;;;;5027254;28;20187;-90
2021/12/09 09:49:44;;;;;;;14.33;11.67;;;3.00;99.90;;;;;;5022373;28;20218;-90
2021/12/09 09:52:11;;;;;;;14.53;11.80;;;3.00;99.90;;;;;;5024141;28;20186;-90
2021/12/09 09:54:38;;;;;;;13.53;11.97;;;3.00;99.90;;;;;;5023968;28;20203;-89
2021/12/09 09:57:06;;;;;;;13.47;11.67;;;3.00;99.90;;;;;;5022484;28;20193;-90
2021/12/09 09:59:32;;;;;;;14.70;12.00;;;2.90;99.90;;;;;;5022036;28;20172;-90
2021/12/09 10:01:58;;;;;;;13.50;12.10;;;2.90;99.90;;;;;;5039464;28;20258;-90
2021/12/09 10:04:32;;;;;;;13.40;11.67;;;2.90;99.90;;;;;;5020447;28;20188;-91
2021/12/09 10:06:59;;;;;;;14.80;11.70;;;2.80;99.90;;;;;;5038950;28;20204;-90
2021/12/09 10:09:26;;;;;;;14.27;12.77;;;2.60;99.90;;;;;;5026655;28;20205;-90
2021/12/09 10:11:54;;;;;;;16.50;12.50;;;2.50;99.90;;;;;;5059641;28;20177;-91
2021/12/09 10:14:24;;;;;;;12.40;10.97;;;2.60;99.90;;;;;;5054318;28;20179;-90
2021/12/09 10:17:10;;;;;;;14.20;10.97;;;2.60;99.90;;;;;;5019695;28;20650;-87
2021/12/09 10:19:48;;;;;;;11.47;10.37;;;2.60;99.90;;;;;;5035798;28;20244;-88
2021/12/09 10:22:20;;;;;;;13.13;10.90;;;2.60;99.90;;;;;;5037364;28;20162;-88
2021/12/09 10:24:47;;;;;;;12.43;11.17;;;2.70;99.90;;;;;;5035517;28;20664;-87
2021/12/09 10:27:23;;;;;;;13.10;11.80;;;2.80;99.90;;;;;;5017353;28;20211;-87
2021/12/09 10:29:50;;;;;;;15.80;12.27;;;2.80;99.90;;;;;;5017419;28;20217;-88
2021/12/09 10:32:25;;;;;;;14.77;11.40;;;2.50;99.90;;;;;;5035110;28;20228;-88
2021/12/09 10:34:51;;;;;;;13.67;12.20;;;2.50;99.90;;;;;;5035782;28;20162;-90
2021/12/09 10:37:32;;;;;;;13.10;11.83;;;2.50;99.90;;;;;;5027545;28;20198;-88
2021/12/09 10:40:14;;;;;;;14.83;12.03;;;2.30;99.90;;;;;;5023087;28;20224;-88
2021/12/09 10:42:54;;;;;;;12.57;11.13;;;2.40;99.90;;;;;;5025315;28;20221;-88
2021/12/09 10:45:23;;;;;;;12.47;11.17;;;2.50;99.90;;;;;;5053359;28;20226;-88
2021/12/09 10:48:05;;;;;;;12.60;10.57;;;2.60;99.90;;;;;;5038185;28;20242;-88
2021/12/09 10:53:30;;;;;;;15.10;9.97;;;2.90;99.90;;;;;;5038931;28;20176;-89
2021/12/09 10:56:06;;;;;;;11.60;10.40;;;3.00;99.90;;;;;;5040319;28;20673;-90
2021/12/09 10:58:39;;;;;;;11.40;10.23;;;3.00;99.90;;;;;;5021852;28;20170;-88
2021/12/09 11:01:15;;;;;;;10.80;9.63;;;2.90;99.90;;;;;;5026369;28;20269;-89
2021/12/09 11:03:44;;;;;;;11.73;10.47;;;3.10;99.90;;;;;;5040092;28;20198;-89
2021/12/09 11:06:12;;;;;;;12.23;10.93;;;3.20;99.90;;;;;;5037774;28;20198;-91
2021/12/09 11:08:41;;;;;;;11.90;10.67;;;3.30;99.90;;;;;;5020102;28;20212;-89
2021/12/09 11:11:33;;;;;;;12.87;11.30;;;3.40;99.90;;;;;;5023324;28;20250;-88
2021/12/09 11:14:09;;;;;;;13.33;10.97;;;3.40;99.90;;;;;;5007358;28;20200;-88
2021/12/09 11:16:39;;;;;;;13.20;11.53;;;3.50;99.90;;;;;;5017917;28;20171;-88
2021/12/09 11:19:14;;;;;;;12.80;11.50;;;3.40;99.90;;;;;;5019238;28;20710;-91
2021/12/09 11:21:45;;;;;;;12.23;10.97;;;3.40;99.90;;;;;;5038677;28;20155;-89
2021/12/09 11:24:13;;;;;;;13.60;11.60;;;3.40;99.90;;;;;;5035780;28;20582;-89
2021/12/09 11:29:44;;;;;;;13.93;11.10;;;3.40;99.90;;;;;;5036231;28;20540;-90
2021/12/09 11:35:00;;;;;;;16.10;12.73;;;3.60;99.90;;;;;;5039396;28;20171;-90
2021/12/09 11:40:02;;;;;;;13.77;12.23;;;3.40;99.90;;;;;;5038843;28;20175;-90
2021/12/09 11:42:48;;;;;;;13.43;11.73;;;3.40;99.90;;;;;;5020748;28;20277;-90
2021/12/09 11:45:18;;;;;;;13.80;12.17;;;3.40;99.90;;;;;;5017503;28;20710;-89
2021/12/09 11:47:45;;;;;;;11.93;10.50;;;3.50;99.90;;;;;;5034321;28;20179;-90
2021/12/09 11:50:19;;;;;;;13.80;12.20;;;3.50;99.90;;;;;;5018600;28;20184;-89
2021/12/09 11:52:46;;;;;;;13.67;12.27;;;3.40;99.90;;;;;;5018672;28;20603;-90
2021/12/09 11:55:17;;;;;;;14.43;12.93;;;3.40;99.90;;;;;;5034410;28;20178;-89
2021/12/09 11:57:58;;;;;;;15.87;13.10;;;3.40;99.90;;;;;;5016584;28;20176;-90
2021/12/09 12:12:28;;;;;;;18.27;14.90;;;3.30;99.90;;;;;;5059805;28;20240;-89
2021/12/09 12:14:59;;;;;;;22.27;16.60;;;3.30;99.90;;;;;;5032231;28;20169;-90
2021/12/09 12:17:36;;;;;;;19.20;15.80;;;3.30;99.90;;;;;;5035485;28;20183;-89
2021/12/09 12:20:27;;;;;;;17.03;15.00;;;3.20;99.90;;;;;;5052923;28;20245;-90
2021/12/09 12:31:59;;;;;;;15.33;12.80;;;3.20;99.90;;;;;;4968452;28;20203;-91
2021/12/09 12:40:39;;;;;;;15.17;12.47;;;3.30;99.90;;;;;;4968057;29;20185;-89
2021/12/09 12:43:13;;;;;;;12.80;11.47;;;3.30;99.90;;;;;;4962161;29;20598;-89
2021/12/09 12:49:04;;;;;;;14.90;12.07;;;3.40;99.90;;;;;;4975016;29;20209;-90
2021/12/09 12:54:28;;;;;;;14.70;12.97;;;3.30;99.90;;;;;;4866230;29;20256;-86
2021/12/09 12:56:58;;;;;;;15.13;12.83;;;3.30;99.90;;;;;;4864261;29;20580;-90
2021/12/09 12:59:33;;;;;;;15.10;13.53;;;3.30;99.90;;;;;;4864527;29;20180;-88
2021/12/09 13:03:05;;;;;;;17.23;13.07;;;3.20;99.90;;;;;;4864531;29;20194;-90
2021/12/09 13:07:26;;;;;;;16.13;12.73;;;3.10;99.90;;;;;;4874021;29;20193;-90
2021/12/09 13:11:19;;;;;;;14.97;13.37;;;3.20;99.90;;;;;;4933346;29;20221;-90
2021/12/09 13:13:31;;;;;;;14.80;13.20;;;3.10;99.90;;;;;;4926836;29;20205;-90
2021/12/09 13:16:10;;;;;;;15.07;13.23;;;3.20;99.90;;;;;;4935937;29;20171;-91
2021/12/09 13:18:44;;;;;;;16.37;13.27;;;3.20;99.90;;;;;;4937347;29;20170;-90
2021/12/09 13:21:47;;;;;;;16.67;13.73;;;3.20;99.90;;;;;;4937682;29;20541;-90
2021/12/09 13:24:28;;;;;;;15.23;13.53;;;3.20;99.90;;;;;;4937414;29;20173;-91
2021/12/09 13:27:37;;;;;;;15.83;13.50;;;3.20;99.90;;;;;;4988697;28;20189;-89
2021/12/09 13:30:32;;;;;;;16.50;14.37;;;3.20;99.90;;;;;;5036493;28;20284;-90
2021/12/09 13:47:36;;;;;;;15.73;14.07;;;3.10;99.90;;;;;;5037515;28;20175;-90
2021/12/09 13:55:31;;;;;;;17.23;14.03;;;3.10;99.90;;;;;;5045927;28;20186;-91
2021/12/09 13:58:21;;;;;;;15.70;13.80;;;3.10;99.90;;;;;;5053931;28;20259;-91
2021/12/09 14:00:48;;;;;;;18.53;14.97;;;3.20;99.90;;;;;;5055574;28;20157;-92
2021/12/09 14:03:18;;;;;;;19.47;14.40;;;3.10;99.90;;;;;;5030075;28;20706;-91